ADDS METAR Data INFO
IDs: Format: Raw Decoded Include TAF

Data at: 0322 UTC 21 Sep 2017

KRIW 210253Z AUTO 04008KT 10SM OVC110 13/M03 A2977 RMK AO2 SLP045 T01331028 58003
KRIW 210153Z AUTO 34004KT 10SM CLR 13/M03 A2978 RMK AO2 SLP060 T01281028
KRIW 210053Z AUTO 23010KT 10SM CLR 15/M03 A2977 RMK AO2 SLP056 T01501033
KRIW 202353Z AUTO 21007KT 10SM CLR 16/M04 A2978 RMK AO2 SLP055 T01611044 10172 20139 58003
KRIW 202253Z AUTO 00000KT 10SM CLR 17/M06 A2978 RMK AO2 SLP056 T01671056
KRIW 202153Z AUTO 23012KT 10SM CLR 17/M06 A2978 RMK AO2 SLP056 T01721061
KRIW 202053Z AUTO 22018G22KT 10SM CLR 17/M06 A2979 RMK AO2 WSHFT 2028 SLP057 T01671056 56012
KRIW 202048Z AUTO 24015G24KT 10SM CLR 17/M06 A2979 RMK AO2 WSHFT 2028
KRIW 201953Z AUTO 19011G14KT 10SM CLR 16/M07 A2981 RMK AO2 SLP064 T01561067
KRIW 201853Z AUTO 20005KT 10SM CLR 14/M07 A2983 RMK AO2 SLP071 T01441072
KRIW 201753Z AUTO 26015G22KT 10SM CLR 14/M07 A2984 RMK AO2 SLP080 T01441072 10144 20022 58016
KRIW 201653Z AUTO 21011KT 10SM CLR 12/M06 A2987 RMK AO2 SLP090 T01221061
KRIW 201553Z AUTO 21012KT 10SM CLR 11/M06 A2988 RMK AO2 SLP097 T01061061
KRIW 201453Z AUTO 18011KT 10SM CLR 08/M04 A2990 RMK AO2 SLP106 T00831039 50005
KRIW 201353Z AUTO 18006KT 10SM CLR 04/M04 A2990 RMK AO2 SLP119 T00441039
KRIW 201253Z AUTO 15004KT 10SM CLR 03/M04 A2989 RMK AO2 SLP112 T00281039
KRIW 201153Z AUTO 20007KT 10SM CLR 03/M04 A2988 RMK AO2 SLP102 T00281044 10050 20022 51002
KRIW 201053Z AUTO 20008KT 10SM CLR 03/M05 A2988 RMK AO2 SLP099 T00331050
KRIW 200953Z AUTO 21008KT 10SM CLR 03/M05 A2988 RMK AO2 SLP097 T00281050
KRIW 200853Z AUTO 20009KT 10SM CLR 03/M04 A2988 RMK AO2 SLP095 T00331044 50003
KRIW 200753Z AUTO 26008KT 10SM CLR 04/M03 A2988 RMK AO2 SLP097 T00391033
KRIW 200653Z AUTO 28011KT 10SM CLR 05/M03 A2988 RMK AO2 SLP093 T00501033 401390033
KRIW 200553Z AUTO 28009KT 10SM CLR 04/M03 A2986 RMK AO2 SLP096 T00441033 10111 20039 53001
KRIW 200453Z AUTO 27010KT 10SM CLR 05/M04 A2986 RMK AO2 SLP094 T00501039
KRIW 200353Z AUTO 25007KT 10SM CLR 06/M03 A2986 RMK AO2 SLP094 T00611033
KRIW 200253Z AUTO 25014G21KT 10SM CLR 07/M03 A2986 RMK AO2 SLP092 T00721033 51019
KRIW 200153Z AUTO 30007KT 10SM CLR 05/M01 A2984 RMK AO2 SLP090 T00501006
KRIW 200053Z AUTO 27014KT 10SM CLR 08/M01 A2982 RMK AO2 PK WND 26028/2354 SLP072 T00831011
KRIW 192353Z AUTO 26025G32KT 10SM CLR 12/M06 A2980 RMK AO2 PK WND 26034/2255 SLP060 T01171056 10139 20106 53016
KRIW 192253Z AUTO 25020G33KT 10SM CLR 12/M02 A2977 RMK AO2 PK WND 24036/2207 SLP051 T01171022
KRIW 192153Z AUTO 26021G28KT 10SM CLR 14/M07 A2975 RMK AO2 PK WND 26030/2118 SLP036 T01391067
KRIW 192053Z AUTO 25024G31KT 10SM FEW075 13/M06 A2974 RMK AO2 PK WND 23031/2052 SLP033 T01331056 50003
KRIW 191953Z AUTO 30010KT 10SM BKN075 BKN090 12/M04 A2974 RMK AO2 WSHFT 1920 SLP035 T01221039
KRIW 191940Z AUTO 30010KT 10SM SCT075 BKN085 BKN110 13/M03 A2974 RMK AO2 WSHFT 1920 T01281028
KRIW 191853Z AUTO 20015KT 10SM FEW090 FEW120 12/M02 A2973 RMK AO2 SLP028 T01221017
KRIW 191753Z AUTO 20016KT 10SM FEW110 10/01 A2973 RMK AO2 SLP029 60000 T01000006 10106 20072 50006
KRIW 191653Z AUTO 28014KT 10SM BKN100 09/03 A2974 RMK AO2 RAB12E25 SLP028 P0000 T00890033
KRIW 191553Z AUTO 31021G28KT 10SM FEW044 BKN070 OVC095 08/03 A2973 RMK AO2 PK WND 31028/1553 RAE00B20E44 SLP029 P0000 T00780028